createdAt,value
2023-05-10T00:02:13.327Z,89517.44
2023-05-10T00:04:39.560Z,89510.47
2023-05-10T00:07:05.778Z,89504.38
2023-05-10T00:09:32.064Z,89509.44
2023-05-10T00:11:58.353Z,89499.84
2023-05-10T00:14:24.569Z,89486.72
2023-05-10T00:16:50.862Z,89487.28
2023-05-10T00:19:18.471Z,89486.25
2023-05-10T00:21:44.696Z,89483.72
2023-05-10T00:24:10.973Z,89493.22
2023-05-10T00:26:37.273Z,89492.50
2023-05-10T00:29:03.489Z,89499.09
2023-05-10T00:31:29.731Z,89497.81
2023-05-10T00:33:56.021Z,89508.19
2023-05-10T00:36:22.251Z,89504.59
2023-05-10T00:38:48.479Z,89512.22
2023-05-10T00:41:14.706Z,89505.31
2023-05-10T00:43:40.949Z,89507.16
2023-05-10T00:46:07.190Z,89520.78
2023-05-10T00:48:33.449Z,89510.72
2023-05-10T00:50:59.679Z,89503.56
2023-05-10T00:53:25.917Z,89506.78
2023-05-10T00:55:52.158Z,89511.81
2023-05-10T00:58:18.402Z,89524.59
2023-05-10T01:00:44.657Z,89517.09
2023-05-10T01:03:11.040Z,89515.53
2023-05-10T01:05:37.325Z,89517.31
2023-05-10T01:08:03.650Z,89510.91
2023-05-10T01:10:29.936Z,89506.47
2023-05-10T01:12:56.229Z,89513.94
2023-05-10T01:15:22.521Z,89520.97
2023-05-10T01:17:48.908Z,89518.16
2023-05-10T01:20:15.526Z,89516.59
2023-05-10T01:22:41.954Z,89513.31
2023-05-10T01:25:08.218Z,89512.47
2023-05-10T01:27:34.462Z,89506.56
2023-05-10T01:30:22.000Z,89500.84
2023-05-10T01:32:46.985Z,89498.00
2023-05-10T01:35:13.306Z,89496.66
2023-05-10T01:37:39.585Z,89500.44
2023-05-10T01:40:05.804Z,89499.84
2023-05-10T01:42:32.022Z,89493.09
2023-05-10T01:44:58.248Z,89498.56
2023-05-10T01:47:24.523Z,89493.78
2023-05-10T01:49:50.778Z,89494.84
2023-05-10T01:52:17.010Z,89492.09
2023-05-10T01:54:43.232Z,89487.94
2023-05-10T01:57:09.472Z,89504.03
2023-05-10T01:59:35.726Z,89497.25
2023-05-10T02:02:01.960Z,89501.41
2023-05-10T02:04:28.242Z,89505.94
2023-05-10T02:06:54.473Z,89505.09
2023-05-10T02:09:20.726Z,89503.31
2023-05-10T02:11:46.950Z,89512.88
2023-05-10T02:14:13.193Z,89516.13
2023-05-10T02:16:39.510Z,89518.38
2023-05-10T02:19:05.810Z,89507.41
2023-05-10T02:21:32.063Z,89506.56
2023-05-10T02:23:58.286Z,89499.94
2023-05-10T02:26:24.599Z,89501.44
2023-05-10T02:28:50.811Z,89494.53
2023-05-10T02:31:17.052Z,89492.94
2023-05-10T02:33:43.293Z,89486.94
2023-05-10T02:36:09.531Z,89493.31
2023-05-10T02:38:35.754Z,89496.38
2023-05-10T02:41:01.995Z,89498.06
2023-05-10T02:43:28.223Z,89492.28
2023-05-10T02:45:54.467Z,89495.75
2023-05-10T02:48:20.728Z,89500.84
2023-05-10T02:50:46.969Z,89498.84
2023-05-10T02:53:13.210Z,89498.34
2023-05-10T02:55:39.465Z,89512.31
2023-05-10T02:58:05.715Z,89512.91
2023-05-10T03:00:31.969Z,89507.34
2023-05-10T03:02:58.314Z,89510.56
2023-05-10T03:05:24.634Z,89507.28
2023-05-10T03:07:50.862Z,89502.25
2023-05-10T03:10:17.360Z,89502.03
2023-05-10T03:12:43.822Z,89510.16
2023-05-10T03:15:10.060Z,89506.16
2023-05-10T03:17:36.312Z,89506.47
2023-05-10T03:20:02.587Z,89504.38
2023-05-10T03:22:28.805Z,89509.38
2023-05-10T03:24:55.050Z,89516.22
2023-05-10T03:27:21.324Z,89516.59
2023-05-10T03:29:47.600Z,89520.56
2023-05-10T03:32:13.815Z,89519.53
2023-05-10T03:34:40.096Z,89508.66
2023-05-10T03:37:06.401Z,89504.31
2023-05-10T03:39:32.630Z,89503.66
2023-05-10T03:41:58.839Z,89501.94
2023-05-10T03:44:25.087Z,89497.53
2023-05-10T03:46:51.385Z,89493.59
2023-05-10T03:49:17.637Z,89496.94
2023-05-10T03:51:43.991Z,89497.41
2023-05-10T03:54:10.248Z,89487.34
2023-05-10T03:56:36.482Z,89488.53
2023-05-10T03:59:02.755Z,89488.03
2023-05-10T04:01:29.068Z,89487.19
2023-05-10T04:03:55.381Z,89484.41
2023-05-10T04:06:21.803Z,89483.97
2023-05-10T04:08:48.105Z,89481.81
2023-05-10T04:11:14.334Z,89480.50
2023-05-10T04:13:40.556Z,89479.38
2023-05-10T04:16:06.822Z,89488.38
2023-05-10T04:18:33.104Z,89476.75
2023-05-10T04:20:59.337Z,89478.09
2023-05-10T04:23:25.636Z,89469.69
2023-05-10T04:25:51.918Z,89473.66
2023-05-10T04:28:18.121Z,89478.50
2023-05-10T04:30:44.439Z,89472.53
2023-05-10T04:33:10.769Z,89473.25
2023-05-10T04:35:36.997Z,89477.09
2023-05-10T04:38:03.292Z,89483.81
2023-05-10T04:40:29.646Z,89478.41
2023-05-10T04:42:55.902Z,89486.03
2023-05-10T04:45:22.158Z,89480.06
2023-05-10T04:47:48.524Z,89478.97
2023-05-10T04:50:14.968Z,89479.41
2023-05-10T04:52:41.395Z,89484.50
2023-05-10T04:55:07.654Z,89487.19
2023-05-10T04:57:33.883Z,89479.69
2023-05-10T05:00:00.165Z,89481.78
2023-05-10T05:02:26.548Z,89471.97
2023-05-10T05:04:52.834Z,89473.66
2023-05-10T05:07:19.076Z,89480.97
2023-05-10T05:09:45.374Z,89480.59
2023-05-10T05:12:11.655Z,89484.59
2023-05-10T05:14:37.897Z,89491.00
2023-05-10T05:17:04.168Z,89494.38
2023-05-10T05:19:30.470Z,89486.34
2023-05-10T05:21:56.702Z,89490.91
2023-05-10T05:24:22.972Z,89494.28
2023-05-10T05:26:49.243Z,89496.31
2023-05-10T05:29:15.492Z,89493.28
2023-05-10T05:31:41.798Z,89485.72
2023-05-10T05:34:08.105Z,89490.13
2023-05-10T05:36:35.901Z,89496.38
2023-05-10T05:39:03.757Z,89505.31
2023-05-10T05:41:29.991Z,89494.06
2023-05-10T05:43:56.240Z,89505.66
2023-05-10T05:46:22.571Z,89505.84
2023-05-10T05:48:50.108Z,89507.31
2023-05-10T05:51:16.390Z,89509.00
2023-05-10T05:53:42.618Z,89505.91
2023-05-10T05:56:08.848Z,89502.81
2023-05-10T05:58:35.072Z,89500.69
2023-05-10T06:01:01.341Z,89502.56
2023-05-10T06:03:27.678Z,89501.41
2023-05-10T06:05:54.021Z,89505.41
2023-05-10T06:08:20.251Z,89508.97
2023-05-10T06:10:46.517Z,89502.66
2023-05-10T06:13:12.848Z,89511.84
2023-05-10T06:15:39.113Z,89514.94
2023-05-10T06:18:05.455Z,89511.84
2023-05-10T06:20:31.909Z,89520.25
2023-05-10T06:22:58.178Z,89515.72
2023-05-10T06:25:24.503Z,89521.38
2023-05-10T06:27:53.702Z,89509.72
2023-05-10T06:30:20.183Z,89510.88
2023-05-10T06:32:46.524Z,89505.63
2023-05-10T06:35:12.851Z,89511.91
2023-05-10T06:37:39.090Z,89514.63
2023-05-10T06:40:05.313Z,89512.34
2023-05-10T06:42:31.549Z,89512.97
2023-05-10T06:44:57.791Z,89509.88
2023-05-10T06:47:24.064Z,89506.19
2023-05-10T06:49:50.470Z,89510.84
2023-05-10T06:52:16.791Z,89512.00
2023-05-10T06:54:43.062Z,89503.63
2023-05-10T06:57:19.447Z,89510.63
2023-05-10T06:59:50.002Z,89507.72
2023-05-10T07:02:16.420Z,89517.22
2023-05-10T07:04:42.755Z,89511.13
2023-05-10T07:07:09.007Z,89511.34
2023-05-10T07:09:35.284Z,89515.16
2023-05-10T07:12:01.598Z,89516.84
2023-05-10T07:14:27.961Z,89517.84
2023-05-10T07:16:54.216Z,89510.91
2023-05-10T07:19:20.476Z,89507.63
2023-05-10T07:21:46.747Z,89510.78
2023-05-10T07:24:13.020Z,89514.06
2023-05-10T07:26:39.296Z,89509.72
2023-05-10T07:29:05.527Z,89510.78
2023-05-10T07:31:31.844Z,89511.75
2023-05-10T07:33:58.339Z,89512.69
2023-05-10T07:36:24.584Z,89516.91
2023-05-10T07:38:50.845Z,89512.47
2023-05-10T07:41:17.114Z,89512.81
2023-05-10T07:43:43.346Z,89512.25
2023-05-10T07:46:09.665Z,89514.00
2023-05-10T07:48:36.002Z,89516.16
2023-05-10T07:51:02.302Z,89515.53
2023-05-10T07:53:28.533Z,89509.72
2023-05-10T07:55:54.848Z,89515.44
2023-05-10T07:58:21.146Z,89515.84
2023-05-10T08:00:47.366Z,89510.78
2023-05-10T08:03:13.844Z,89511.84
2023-05-10T08:05:40.215Z,89512.56
2023-05-10T08:08:06.463Z,89509.72
2023-05-10T08:10:32.797Z,89513.03
2023-05-10T08:12:59.077Z,89516.97
2023-05-10T08:15:25.379Z,89508.25
2023-05-10T08:17:51.644Z,89514.94
2023-05-10T08:20:17.965Z,89509.16
2023-05-10T08:22:44.273Z,89513.31
2023-05-10T08:25:10.578Z,89521.84
2023-05-10T08:27:37.054Z,89514.47
2023-05-10T08:30:03.340Z,89504.84
2023-05-10T08:32:29.692Z,89513.50
2023-05-10T08:34:56.036Z,89505.47
2023-05-10T08:37:22.314Z,89509.94
2023-05-10T08:39:48.617Z,89511.63
2023-05-10T08:42:14.836Z,89509.28
2023-05-10T08:44:41.157Z,89512.38
2023-05-10T08:47:07.734Z,89514.53
2023-05-10T08:49:34.105Z,89508.16
2023-05-10T08:52:00.339Z,89510.13
2023-05-10T08:54:26.595Z,89512.84
2023-05-10T08:56:52.824Z,89506.06
2023-05-10T08:59:19.080Z,89502.31
2023-05-10T09:01:45.319Z,89508.56
2023-05-10T09:04:11.653Z,89511.97
2023-05-10T09:06:37.996Z,89498.75
2023-05-10T09:09:04.338Z,89500.59
2023-05-10T09:11:30.596Z,89498.09
2023-05-10T09:13:56.863Z,89496.75
2023-05-10T09:16:23.290Z,89491.19
2023-05-10T09:18:49.589Z,89491.47
2023-05-10T09:21:15.845Z,89496.63
2023-05-10T09:23:42.188Z,89498.53
2023-05-10T09:26:08.447Z,89494.84
2023-05-10T09:28:34.722Z,89492.41
2023-05-10T09:31:01.054Z,89491.19
2023-05-10T09:33:27.536Z,89495.47
2023-05-10T09:35:53.798Z,89489.63
2023-05-10T09:38:20.046Z,89500.19
2023-05-10T09:40:46.254Z,89496.47
2023-05-10T09:43:12.488Z,89502.34
2023-05-10T09:45:39.311Z,89501.19
2023-05-10T09:48:05.748Z,89501.78
2023-05-10T09:50:32.070Z,89503.75
2023-05-10T09:52:58.321Z,89503.75
2023-05-10T09:55:24.548Z,89506.69
2023-05-10T09:57:50.771Z,89512.44
2023-05-10T10:00:17.057Z,89510.84
2023-05-10T10:02:43.425Z,89501.88
2023-05-10T10:05:09.884Z,89492.34
2023-05-10T10:07:36.286Z,89493.22
2023-05-10T10:10:02.518Z,89495.44
2023-05-10T10:12:28.788Z,89494.09
2023-05-10T10:14:55.109Z,89484.56
2023-05-10T10:17:21.415Z,89491.09
2023-05-10T10:19:47.737Z,89491.09
2023-05-10T10:22:14.033Z,89488.47
2023-05-10T10:24:40.269Z,89485.34
2023-05-10T10:27:06.710Z,89481.41
2023-05-10T10:29:32.997Z,89487.63
2023-05-10T10:31:59.316Z,89485.28
2023-05-10T10:34:25.589Z,89480.72
2023-05-10T10:36:51.821Z,89480.16
2023-05-10T10:39:18.134Z,89482.91
2023-05-10T10:41:44.403Z,89479.38
2023-05-10T10:44:10.628Z,89479.94
2023-05-10T10:46:36.935Z,89471.16
2023-05-10T10:49:03.239Z,89470.72
2023-05-10T10:51:29.555Z,89464.25
2023-05-10T10:53:55.774Z,89466.75
2023-05-10T10:56:22.048Z,89469.03
2023-05-10T10:58:48.409Z,89468.81
2023-05-10T11:01:14.693Z,89464.34
2023-05-10T11:03:41.020Z,89471.00
2023-05-10T11:06:07.316Z,89462.06
2023-05-10T11:08:35.131Z,89455.28
2023-05-10T11:11:03.182Z,89461.97
2023-05-10T11:13:29.481Z,89465.53
2023-05-10T11:15:55.706Z,89469.16
2023-05-10T11:18:22.058Z,89471.75
2023-05-10T11:20:48.439Z,89455.94
2023-05-10T11:23:14.686Z,89466.38
2023-05-10T11:25:40.922Z,89458.13
2023-05-10T11:28:07.220Z,89461.31
2023-05-10T11:30:33.551Z,89453.06
2023-05-10T11:32:59.827Z,89452.56
2023-05-10T11:35:26.189Z,89448.56
2023-05-10T11:37:52.483Z,89445.16
2023-05-10T11:40:18.988Z,89445.81
2023-05-10T11:42:45.419Z,89445.84
2023-05-10T11:45:11.727Z,89444.09
2023-05-10T11:47:37.994Z,89449.03
2023-05-10T11:50:04.318Z,89446.81
2023-05-10T11:52:30.608Z,89449.53
2023-05-10T11:54:56.847Z,89438.44
2023-05-10T11:57:23.126Z,89446.81
2023-05-10T11:59:49.535Z,89445.28
2023-05-10T12:02:15.826Z,89445.13
2023-05-10T12:04:42.120Z,89449.00
2023-05-10T12:07:08.373Z,89444.72
2023-05-10T12:09:43.757Z,89446.75
2023-05-10T12:12:10.575Z,89449.63
2023-05-10T12:14:36.841Z,89442.50
2023-05-10T12:17:03.087Z,89457.38
2023-05-10T12:19:29.371Z,89449.00
2023-05-10T12:21:55.655Z,89449.56
2023-05-10T12:24:21.881Z,89461.78
2023-05-10T12:26:48.162Z,89450.91
2023-05-10T12:29:14.432Z,89455.75
2023-05-10T12:31:40.718Z,89460.31
2023-05-10T12:34:06.995Z,89450.00
2023-05-10T12:36:33.242Z,89453.09
2023-05-10T12:38:59.543Z,89459.13
2023-05-10T12:41:25.786Z,89456.59
2023-05-10T12:43:52.107Z,89448.81
2023-05-10T12:46:18.448Z,89450.00
2023-05-10T12:48:44.773Z,89450.88
2023-05-10T12:51:11.033Z,89458.50
2023-05-10T12:53:37.276Z,89454.69
2023-05-10T12:56:03.502Z,89460.31
2023-05-10T12:58:35.707Z,89452.50
2023-05-10T13:01:02.480Z,89456.19
2023-05-10T13:03:28.767Z,89463.09
2023-05-10T13:05:55.029Z,89466.47
2023-05-10T13:08:21.301Z,89461.47
2023-05-10T13:10:48.030Z,89463.09
2023-05-10T13:13:14.266Z,89461.31
2023-05-10T13:15:40.540Z,89444.56
2023-05-10T13:18:06.842Z,89458.53
2023-05-10T13:20:33.102Z,89456.31
2023-05-10T13:22:59.350Z,89468.69
2023-05-10T13:25:25.663Z,89462.94
2023-05-10T13:27:51.880Z,89460.31
2023-05-10T13:30:18.397Z,89462.78
2023-05-10T13:32:44.995Z,89453.75
2023-05-10T13:35:11.266Z,89457.22
2023-05-10T13:37:37.521Z,89462.31
2023-05-10T13:40:03.873Z,89461.47
2023-05-10T13:42:30.131Z,89451.75
2023-05-10T13:44:56.366Z,89457.19
2023-05-10T13:47:22.706Z,89454.13
2023-05-10T13:49:49.014Z,89446.94
2023-05-10T13:52:15.236Z,89442.19
2023-05-10T13:54:41.474Z,89439.41
2023-05-10T13:57:07.759Z,89433.50
2023-05-10T13:59:33.986Z,89433.28
2023-05-10T14:02:00.319Z,89434.94
2023-05-10T14:04:26.645Z,89433.06
2023-05-10T14:06:52.877Z,89433.75
2023-05-10T14:09:19.150Z,89443.44
2023-05-10T14:11:45.453Z,89436.38
2023-05-10T14:14:11.700Z,89418.84
2023-05-10T14:16:37.969Z,89432.69
2023-05-10T14:19:04.437Z,89441.16
2023-05-10T14:21:30.970Z,89436.50
2023-05-10T14:23:57.185Z,89448.53
2023-05-10T14:26:23.427Z,89442.66
2023-05-10T14:28:49.687Z,89451.63
2023-05-10T14:31:16.013Z,89437.06
2023-05-10T14:33:42.408Z,89438.25
2023-05-10T14:36:08.655Z,89446.81
2023-05-10T14:38:34.928Z,89443.69
2023-05-10T14:41:01.278Z,89449.72
2023-05-10T14:43:27.503Z,89454.13
2023-05-10T14:45:53.827Z,89445.31
2023-05-10T14:48:20.132Z,89450.31
2023-05-10T14:50:46.365Z,89455.09
2023-05-10T14:53:12.633Z,89456.50
2023-05-10T14:55:38.928Z,89453.25
2023-05-10T14:58:05.170Z,89457.06
2023-05-10T15:00:31.410Z,89457.50
2023-05-10T15:02:58.242Z,89458.53
2023-05-10T15:05:24.752Z,89452.34
2023-05-10T15:07:51.366Z,89459.13
2023-05-10T15:10:17.652Z,89463.38
2023-05-10T15:12:43.897Z,89451.50
2023-05-10T15:15:10.133Z,89450.25
2023-05-10T15:17:36.386Z,89457.38
2023-05-10T15:20:02.669Z,89444.13
2023-05-10T15:22:28.923Z,89465.59
2023-05-10T15:24:55.187Z,89452.94
2023-05-10T15:27:21.428Z,89452.31
2023-05-10T15:29:47.696Z,89458.97
2023-05-10T15:32:13.989Z,89461.16
2023-05-10T15:34:40.229Z,89465.25
2023-05-10T15:37:06.466Z,89466.13
2023-05-10T15:39:32.715Z,89463.22
2023-05-10T15:41:58.962Z,89467.59
2023-05-10T15:44:25.281Z,89469.06
2023-05-10T15:46:51.635Z,89471.03
2023-05-10T15:49:17.867Z,89469.94
2023-05-10T15:51:44.127Z,89475.03
2023-05-10T15:54:10.409Z,89479.81
2023-05-10T15:56:36.661Z,89470.81
2023-05-10T15:59:02.958Z,89482.25
2023-05-10T16:01:29.506Z,89483.06
2023-05-10T16:03:55.817Z,89484.00
2023-05-10T16:06:22.058Z,89483.13
2023-05-10T16:08:48.338Z,89496.59
2023-05-10T16:11:14.613Z,89495.75
2023-05-10T16:13:40.855Z,89497.00
2023-05-10T16:16:07.211Z,89495.03
2023-05-10T16:18:33.674Z,89493.88
2023-05-10T16:21:00.011Z,89501.66
2023-05-10T16:23:26.318Z,89508.06
2023-05-10T16:25:52.622Z,89508.47
2023-05-10T16:28:18.855Z,89496.31
2023-05-10T16:30:45.207Z,89502.94
2023-05-10T16:33:11.649Z,89511.94
2023-05-10T16:35:37.890Z,89503.56
2023-05-10T16:38:04.166Z,89498.47
2023-05-10T16:40:30.429Z,89493.94
2023-05-10T16:42:56.674Z,89502.88
2023-05-10T16:45:22.966Z,89507.44
2023-05-10T16:47:49.321Z,89503.91
2023-05-10T16:50:15.639Z,89506.59
2023-05-10T16:52:41.906Z,89504.63
2023-05-10T16:55:08.187Z,89503.44
2023-05-10T16:57:34.424Z,89510.50
2023-05-10T17:00:00.913Z,89508.06
2023-05-10T17:02:27.373Z,89511.28
2023-05-10T17:04:53.731Z,89511.91
2023-05-10T17:07:20.014Z,89501.97
2023-05-10T17:09:46.319Z,89518.63
2023-05-10T17:12:12.559Z,89516.84
2023-05-10T17:14:38.859Z,89517.41
2023-05-10T17:17:05.226Z,89525.81
2023-05-10T17:19:31.477Z,89518.00
2023-05-10T17:21:57.743Z,89528.56
2023-05-10T17:24:24.019Z,89522.69
2023-05-10T17:26:50.295Z,89520.44
2023-05-10T17:29:16.606Z,89527.38
2023-05-10T17:31:44.258Z,89521.41
2023-05-10T17:34:10.569Z,89523.38
2023-05-10T17:36:36.819Z,89524.63
2023-05-10T17:39:03.102Z,89517.53
2023-05-10T17:41:29.389Z,89525.81
2023-05-10T17:43:55.620Z,89532.78
2023-05-10T17:46:21.888Z,89536.91
2023-05-10T17:48:48.199Z,89531.31
2023-05-10T17:51:14.488Z,89536.38
2023-05-10T17:53:40.731Z,89533.75
2023-05-10T17:56:07.035Z,89534.59
2023-05-10T17:58:33.298Z,89537.22
2023-05-10T18:00:59.549Z,89546.28
2023-05-10T18:03:25.828Z,89545.00
2023-05-10T18:05:52.112Z,89543.88
2023-05-10T18:08:18.383Z,89544.47
2023-05-10T18:10:44.665Z,89537.66
2023-05-10T18:13:10.962Z,89545.22
2023-05-10T18:15:37.263Z,89546.25
2023-05-10T18:18:03.659Z,89552.50
2023-05-10T18:20:30.043Z,89544.25
2023-05-10T18:22:56.496Z,89557.31
2023-05-10T18:25:22.767Z,89548.88
2023-05-10T18:27:49.077Z,89552.63
2023-05-10T18:30:15.346Z,89558.34
2023-05-10T18:32:41.735Z,89558.81
2023-05-10T18:35:08.062Z,89557.31
2023-05-10T18:37:34.397Z,89559.81
2023-05-10T18:40:00.695Z,89557.75
2023-05-10T18:42:26.986Z,89557.06
2023-05-10T18:44:53.371Z,89560.25
2023-05-10T18:47:19.687Z,89565.78
2023-05-10T18:49:45.952Z,89564.50
2023-05-10T18:52:12.291Z,89571.88
2023-05-10T18:54:38.554Z,89571.97
2023-05-10T18:57:04.995Z,89571.66
2023-05-10T18:59:31.422Z,89573.25
2023-05-10T19:01:57.854Z,89571.03
2023-05-10T19:04:24.336Z,89574.28
2023-05-10T19:06:50.725Z,89574.47
2023-05-10T19:09:17.106Z,89572.72
2023-05-10T19:11:43.749Z,89570.09
2023-05-10T19:14:10.195Z,89579.94
2023-05-10T19:16:37.033Z,89581.88
2023-05-10T19:19:03.696Z,89579.38
2023-05-10T19:21:31.591Z,89584.03
2023-05-10T19:23:58.455Z,89583.69
2023-05-10T19:26:27.269Z,89586.22
2023-05-10T19:28:53.833Z,89587.38
2023-05-10T19:31:20.490Z,89592.97
2023-05-10T19:33:47.112Z,89594.75
2023-05-10T19:36:14.546Z,89608.38
2023-05-10T19:38:41.091Z,89597.69
2023-05-10T19:41:07.504Z,89603.38
2023-05-10T19:43:34.367Z,89601.66
2023-05-10T19:46:01.100Z,89607.13
2023-05-10T19:48:27.549Z,89604.53
2023-05-10T19:50:54.043Z,89617.50
2023-05-10T19:53:20.547Z,89614.56
2023-05-10T19:55:47.039Z,89615.72
2023-05-10T19:58:13.448Z,89607.00
2023-05-10T20:00:39.958Z,89613.94
2023-05-10T20:03:09.462Z,89612.34
2023-05-10T20:05:36.046Z,89608.69
2023-05-10T20:08:02.451Z,89620.50
2023-05-10T20:10:28.941Z,89620.78
2023-05-10T20:12:55.321Z,89625.22
2023-05-10T20:15:21.728Z,89619.09
2023-05-10T20:17:48.242Z,89619.31
2023-05-10T20:20:14.949Z,89620.97
2023-05-10T20:22:42.470Z,89618.31
2023-05-10T20:25:08.837Z,89617.16
2023-05-10T20:27:35.168Z,89615.66
2023-05-10T20:30:01.521Z,89621.34
2023-05-10T20:32:27.874Z,89619.00
2023-05-10T20:34:54.239Z,89622.47
2023-05-10T20:37:20.610Z,89620.78
2023-05-10T20:39:49.066Z,89621.00
2023-05-10T20:42:16.596Z,89609.22
2023-05-10T20:44:42.880Z,89613.88
2023-05-10T20:47:09.154Z,89606.19
2023-05-10T20:49:35.566Z,89602.84
2023-05-10T20:52:01.854Z,89602.56
2023-05-10T20:54:28.144Z,89603.31
2023-05-10T20:56:54.420Z,89602.94
2023-05-10T20:59:20.712Z,89606.38
2023-05-10T21:01:46.968Z,89603.09
2023-05-10T21:04:13.257Z,89606.53
2023-05-10T21:06:39.627Z,89602.97
2023-05-10T21:09:05.857Z,89606.25
2023-05-10T21:11:32.721Z,89604.53
2023-05-10T21:13:59.771Z,89601.72
2023-05-10T21:16:26.040Z,89610.09
2023-05-10T21:18:52.306Z,89605.09
2023-05-10T21:21:18.549Z,89611.09
2023-05-10T21:23:44.775Z,89609.13
2023-05-10T21:26:11.052Z,89606.13
2023-05-10T21:28:39.051Z,89619.81
2023-05-10T21:31:06.457Z,89618.28
2023-05-10T21:33:32.702Z,89613.91
2023-05-10T21:35:59.113Z,89610.88
2023-05-10T21:38:25.465Z,89617.81
2023-05-10T21:40:51.685Z,89624.41
2023-05-10T21:43:17.965Z,89616.63
2023-05-10T21:45:44.316Z,89622.75
2023-05-10T21:48:10.654Z,89622.66
2023-05-10T21:50:36.921Z,89628.56
2023-05-10T21:53:03.245Z,89620.13
2023-05-10T21:55:29.488Z,89618.72
2023-05-10T21:57:55.786Z,89625.69
2023-05-10T22:00:22.093Z,89625.94
2023-05-10T22:02:48.424Z,89618.78
2023-05-10T22:05:14.724Z,89622.13
2023-05-10T22:07:41.058Z,89617.41
2023-05-10T22:10:07.275Z,89624.81
2023-05-10T22:12:33.542Z,89624.63
2023-05-10T22:17:33.007Z,89618.16
2023-05-10T22:19:59.390Z,89619.63
2023-05-10T22:22:25.600Z,89618.56
2023-05-10T22:24:51.818Z,89622.91
2023-05-10T22:27:18.117Z,89621.19
2023-05-10T22:29:45.181Z,89629.50
2023-05-10T22:32:11.394Z,89626.44
2023-05-10T22:34:37.693Z,89628.53
2023-05-10T22:37:03.995Z,89619.31
2023-05-10T22:39:30.247Z,89627.19
2023-05-10T22:41:56.488Z,89625.13
2023-05-10T22:44:22.759Z,89622.88
2023-05-10T22:46:49.011Z,89620.50
2023-05-10T22:49:15.372Z,89619.25
2023-05-10T22:51:41.632Z,89614.59
2023-05-10T22:54:07.877Z,89618.28
2023-05-10T22:56:34.195Z,89611.66
2023-05-10T22:59:00.433Z,89610.91
2023-05-10T23:01:26.711Z,89609.75
2023-05-10T23:03:52.964Z,89614.47
2023-05-10T23:06:19.312Z,89622.81
2023-05-10T23:08:45.554Z,89621.03
2023-05-10T23:11:11.792Z,89623.91
2023-05-10T23:13:38.107Z,89626.84
2023-05-10T23:16:04.401Z,89623.13
2023-05-10T23:18:30.671Z,89625.28
2023-05-10T23:20:57.058Z,89621.72
2023-05-10T23:23:23.304Z,89614.19
2023-05-10T23:25:49.583Z,89610.19
2023-05-10T23:28:15.881Z,89611.88
2023-05-10T23:30:42.108Z,89614.13
2023-05-10T23:33:08.504Z,89609.91
2023-05-10T23:35:34.898Z,89614.28
2023-05-10T23:38:01.139Z,89612.88
2023-05-10T23:40:27.385Z,89607.44
2023-05-10T23:42:53.700Z,89616.63
2023-05-10T23:45:19.938Z,89610.78
2023-05-10T23:47:46.253Z,89607.59
2023-05-10T23:50:12.508Z,89608.25
2023-05-10T23:52:38.759Z,89604.78
2023-05-10T23:55:05.015Z,89605.84
2023-05-10T23:57:31.279Z,89602.63
2023-05-10T23:59:57.521Z,89595.78
